createdAt,value
2022-12-18T00:00:43.154Z,94201.91
2022-12-18T00:05:53.618Z,94211.22
2022-12-18T00:11:00.545Z,94207.47
2022-12-18T00:16:06.240Z,94225.13
2022-12-18T00:21:12.629Z,94226.69
2022-12-18T00:26:22.277Z,94222.59
2022-12-18T00:31:29.083Z,94220.31
2022-12-18T00:36:34.960Z,94218.84
2022-12-18T00:41:57.064Z,94230.41
2022-12-18T00:47:00.309Z,94230.94
2022-12-18T00:52:03.350Z,94237.66
2022-12-18T00:57:07.133Z,94242.19
2022-12-18T01:02:10.384Z,94242.06
2022-12-18T01:07:13.683Z,94248.22
2022-12-18T01:12:17.140Z,94254.31
2022-12-18T01:17:20.290Z,94258.19
2022-12-18T01:22:24.110Z,94256.72
2022-12-18T01:27:27.278Z,94269.66
2022-12-18T01:32:33.898Z,94277.56
2022-12-18T01:37:38.649Z,94268.41
2022-12-18T01:42:42.365Z,94268.75
2022-12-18T01:47:47.185Z,94268.88
2022-12-18T01:52:57.164Z,94255.50
2022-12-18T01:58:01.883Z,94261.63
2022-12-18T02:03:05.106Z,94255.06
2022-12-18T02:08:22.149Z,94272.47
2022-12-18T02:13:32.396Z,94274.28
2022-12-18T02:18:40.340Z,94281.06
2022-12-18T02:24:13.521Z,94274.06
2022-12-18T02:29:29.229Z,94286.13
2022-12-18T02:34:37.471Z,94282.31
2022-12-18T02:39:46.124Z,94288.03
2022-12-18T02:44:53.041Z,94287.47
2022-12-18T02:50:19.844Z,94284.06
2022-12-18T02:56:02.022Z,94281.56
2022-12-18T03:01:11.084Z,94288.00
2022-12-18T03:06:24.876Z,94290.91
2022-12-18T03:11:53.953Z,94293.16
2022-12-18T03:17:04.387Z,94301.66
2022-12-18T03:22:09.825Z,94284.00
2022-12-18T03:27:25.752Z,94300.84
2022-12-18T03:32:35.119Z,94299.91
2022-12-18T03:37:39.897Z,94304.31
2022-12-18T03:42:53.006Z,94310.19
2022-12-18T03:48:02.808Z,94315.81
2022-12-18T03:53:23.339Z,94323.94
2022-12-18T03:58:28.072Z,94334.78
2022-12-18T04:03:42.727Z,94333.38
2022-12-18T04:08:48.771Z,94334.28
2022-12-18T04:13:59.902Z,94332.69
2022-12-18T04:19:03.457Z,94335.63
2022-12-18T04:24:12.623Z,94337.72
2022-12-18T04:29:24.115Z,94338.97
2022-12-18T04:34:27.419Z,94332.06
2022-12-18T04:39:32.153Z,94345.47
2022-12-18T04:44:41.212Z,94337.25
2022-12-18T04:49:45.616Z,94338.25
2022-12-18T04:54:48.860Z,94346.41
2022-12-18T04:59:52.331Z,94357.56
2022-12-18T05:04:56.752Z,94352.03
2022-12-18T05:10:00.026Z,94359.09
2022-12-18T05:15:03.539Z,94360.41
2022-12-18T05:20:06.786Z,94368.41
2022-12-18T05:25:10.370Z,94370.19
2022-12-18T05:30:14.361Z,94371.72
2022-12-18T05:35:17.859Z,94371.03
2022-12-18T05:40:23.232Z,94384.97
2022-12-18T05:45:26.455Z,94392.94
2022-12-18T05:50:29.473Z,94388.31
2022-12-18T05:55:38.974Z,94396.22
2022-12-18T06:00:45.276Z,94406.53
2022-12-18T06:05:48.716Z,94415.75
2022-12-18T06:10:53.847Z,94427.47
2022-12-18T06:15:57.448Z,94419.00
2022-12-18T06:21:02.064Z,94417.63
2022-12-18T06:26:13.337Z,94416.06
2022-12-18T06:31:17.413Z,94430.13
2022-12-18T06:36:21.389Z,94442.25
2022-12-18T06:41:25.348Z,94443.78
2022-12-18T06:46:29.240Z,94458.78
2022-12-18T06:51:32.311Z,94469.13
2022-12-18T06:56:36.358Z,94481.78
2022-12-18T07:01:39.727Z,94475.56
2022-12-18T07:06:43.904Z,94477.09
2022-12-18T07:11:46.916Z,94468.66
2022-12-18T07:16:50.409Z,94459.22
2022-12-18T07:21:53.499Z,94458.81
2022-12-18T07:26:57.470Z,94455.97
2022-12-18T07:32:01.068Z,94463.63
2022-12-18T07:37:05.848Z,94470.88
2022-12-18T07:42:28.040Z,94471.41
2022-12-18T07:47:32.904Z,94478.09
2022-12-18T07:52:36.602Z,94472.31
2022-12-18T07:58:00.811Z,94469.34
2022-12-18T08:03:04.237Z,94489.53
2022-12-18T08:08:07.313Z,94505.88
2022-12-18T08:13:10.329Z,94516.66
2022-12-18T08:18:14.541Z,94522.53
2022-12-18T08:23:18.394Z,94514.59
2022-12-18T08:28:22.012Z,94517.69
2022-12-18T08:33:25.167Z,94536.03
2022-12-18T08:38:29.685Z,94538.75
2022-12-18T08:43:51.997Z,94525.97
2022-12-18T08:48:57.243Z,94530.59
2022-12-18T08:54:01.185Z,94545.69
2022-12-18T08:59:05.686Z,94541.56
2022-12-18T09:04:10.929Z,94548.00
2022-12-18T09:09:15.015Z,94547.56
2022-12-18T09:14:18.459Z,94558.03
2022-12-18T10:10:47.978Z,94555.16
2022-12-18T10:15:58.619Z,94556.66
2022-12-18T10:21:12.795Z,94539.22
2022-12-18T11:29:13.186Z,94517.16
2022-12-18T11:34:32.455Z,94514.50
2022-12-18T11:39:44.665Z,94516.13
2022-12-18T11:45:02.521Z,94520.47
2022-12-18T11:50:29.796Z,94517.09
2022-12-18T11:55:43.265Z,94516.09
2022-12-18T12:01:02.366Z,94521.25
2022-12-18T12:06:23.926Z,94521.31
2022-12-18T12:11:33.951Z,94515.06
2022-12-18T12:16:59.046Z,94520.78
2022-12-18T12:22:18.156Z,94525.28
2022-12-18T12:27:49.049Z,94523.97
2022-12-18T12:33:07.462Z,94526.59
2022-12-18T12:38:28.064Z,94488.91
2022-12-18T12:43:43.436Z,94517.50
2022-12-18T12:49:03.811Z,94522.69
2022-12-18T12:54:16.883Z,94522.75
2022-12-18T13:01:05.309Z,94529.38
2022-12-18T13:06:57.463Z,94522.25
2022-12-18T13:12:25.343Z,94509.00
2022-12-18T13:17:32.222Z,94526.78
2022-12-18T13:22:40.318Z,94534.38
2022-12-18T13:27:46.818Z,94537.31
2022-12-18T13:54:20.323Z,94540.25
2022-12-18T13:59:36.092Z,94551.47
2022-12-18T14:04:39.848Z,94547.44
2022-12-18T14:09:50.080Z,94550.25
2022-12-18T14:14:55.101Z,94555.50
2022-12-18T14:19:59.467Z,94555.81
2022-12-18T14:25:12.069Z,94574.72
2022-12-18T14:30:28.658Z,94572.25
2022-12-18T14:35:34.157Z,94584.50
2022-12-18T14:40:37.880Z,94582.09
2022-12-18T14:45:44.578Z,94593.38
2022-12-18T14:50:57.939Z,94594.34
2022-12-18T14:56:01.722Z,94602.19
2022-12-18T15:01:05.226Z,94603.94
2022-12-18T15:06:28.739Z,94606.88
2022-12-18T15:11:45.509Z,94611.53
2022-12-18T15:16:53.470Z,94619.84
2022-12-18T15:22:04.398Z,94625.94
2022-12-18T15:27:26.520Z,94625.91
2022-12-18T15:32:30.361Z,94625.53
2022-12-18T15:37:35.305Z,94631.63
2022-12-18T15:42:58.502Z,94626.38
2022-12-18T15:48:03.710Z,94636.44
2022-12-18T15:53:11.268Z,94644.97
2022-12-18T15:58:14.463Z,94642.19
2022-12-18T16:03:19.623Z,94646.28
2022-12-18T16:08:23.222Z,94651.91
2022-12-18T16:13:26.968Z,94661.56
2022-12-18T16:18:31.626Z,94662.22
2022-12-18T16:23:36.706Z,94670.94
2022-12-18T16:28:45.172Z,94663.28
2022-12-18T16:34:14.705Z,94671.81
2022-12-18T16:39:26.136Z,94675.31
2022-12-18T16:44:37.881Z,94687.94
2022-12-18T16:49:49.363Z,94683.38
2022-12-18T16:54:55.572Z,94691.97
2022-12-18T17:00:05.296Z,94707.47
2022-12-18T17:05:10.995Z,94694.13
2022-12-18T17:10:17.157Z,94702.34
2022-12-18T17:15:23.649Z,94699.63
2022-12-18T17:20:28.548Z,94712.03
2022-12-18T17:25:33.385Z,94719.88
2022-12-18T17:30:37.786Z,94717.91
2022-12-18T17:35:41.265Z,94710.88
2022-12-18T17:40:46.613Z,94711.19
2022-12-18T17:45:50.842Z,94723.06
2022-12-18T17:50:55.910Z,94721.81
2022-12-18T17:56:06.424Z,94725.53
2022-12-18T18:01:16.082Z,94732.72
2022-12-18T18:06:19.837Z,94728.84
2022-12-18T18:11:44.019Z,94737.50
2022-12-18T18:16:49.294Z,94733.72
2022-12-18T18:21:54.622Z,94741.22
2022-12-18T18:27:01.786Z,94748.00
2022-12-18T18:32:05.714Z,94748.41
2022-12-18T18:37:10.694Z,94744.94
2022-12-18T18:42:14.158Z,94755.44
2022-12-18T18:47:17.595Z,94768.47
2022-12-18T18:52:21.239Z,94759.66
2022-12-18T18:57:29.991Z,94768.00
2022-12-18T19:02:33.545Z,94765.63
2022-12-18T19:07:37.310Z,94781.09
2022-12-18T19:12:59.690Z,94793.88
2022-12-18T19:18:03.366Z,94801.94
2022-12-18T19:23:07.002Z,94797.28
2022-12-18T19:28:15.341Z,94800.38
2022-12-18T19:38:49.973Z,94793.38
2022-12-18T19:43:54.147Z,94794.22
2022-12-18T19:49:02.909Z,94810.34
2022-12-18T19:54:07.178Z,94805.94
2022-12-18T19:59:11.133Z,94812.66
2022-12-18T20:04:14.962Z,94821.22
2022-12-18T20:09:19.407Z,94815.66
2022-12-18T20:14:23.910Z,94814.34
2022-12-18T20:19:28.201Z,94822.84
2022-12-18T20:24:32.657Z,94829.44
2022-12-18T20:29:36.988Z,94824.31
2022-12-18T20:34:41.176Z,94822.63
2022-12-18T20:39:45.759Z,94823.03
2022-12-18T20:44:49.935Z,94827.34
2022-12-18T20:49:53.951Z,94827.47
2022-12-18T20:54:57.668Z,94834.38
2022-12-18T21:00:03.075Z,94835.41
2022-12-18T21:05:06.944Z,94824.81
2022-12-18T21:10:10.378Z,94822.31
2022-12-18T21:15:14.160Z,94822.31
2022-12-18T21:20:18.983Z,94826.41
2022-12-18T21:25:22.396Z,94837.69
2022-12-18T21:30:26.113Z,94834.09
2022-12-18T21:35:29.268Z,94841.00
2022-12-18T21:40:35.401Z,94846.22
2022-12-18T21:45:39.844Z,94854.59
2022-12-18T21:50:42.894Z,94855.28
2022-12-18T21:55:46.424Z,94848.59
2022-12-18T22:00:50.409Z,94853.34
2022-12-18T22:06:07.562Z,94855.75
2022-12-18T22:11:13.471Z,94852.72
2022-12-18T22:16:17.429Z,94847.59
2022-12-18T22:21:29.345Z,94852.03
2022-12-18T22:26:39.819Z,94852.03
2022-12-18T22:31:45.144Z,94844.44
2022-12-18T22:36:49.071Z,94841.63
2022-12-18T22:41:53.848Z,94841.63
2022-12-18T22:47:02.886Z,94838.13
2022-12-18T22:52:11.120Z,94839.66
2022-12-18T22:57:14.274Z,94829.66
2022-12-18T23:02:19.316Z,94833.47
2022-12-18T23:07:23.461Z,94824.75
2022-12-18T23:12:26.544Z,94828.06
2022-12-18T23:17:30.137Z,94838.19
2022-12-18T23:22:33.410Z,94832.66
2022-12-18T23:27:37.184Z,94821.94
2022-12-18T23:32:41.472Z,94843.06
2022-12-18T23:38:01.044Z,94835.69
2022-12-18T23:43:04.786Z,94819.03
2022-12-18T23:48:08.232Z,94832.16
2022-12-18T23:53:11.579Z,94830.50
2022-12-18T23:58:21.900Z,94832.28
